createdAt,value
2022-09-30T00:02:36.039Z,19.30
2022-09-30T00:05:05.191Z,19.40
2022-09-30T00:07:38.589Z,19.40
2022-09-30T00:10:09.038Z,19.40
2022-09-30T00:12:46.429Z,19.50
2022-09-30T00:15:24.449Z,19.50
2022-09-30T00:18:00.669Z,19.50
2022-09-30T00:20:32.431Z,19.50
2022-09-30T00:23:02.943Z,19.60
2022-09-30T00:25:33.197Z,19.60
2022-09-30T00:28:05.536Z,19.60
2022-09-30T00:30:39.207Z,19.70
2022-09-30T00:33:08.326Z,19.70
2022-09-30T00:35:42.203Z,19.50
2022-09-30T00:38:11.556Z,19.20
2022-09-30T00:40:39.808Z,19.10
2022-09-30T00:43:24.253Z,19.10
2022-09-30T00:45:58.300Z,19.00
2022-09-30T00:48:36.649Z,18.90
2022-09-30T00:51:14.670Z,18.80
2022-09-30T00:54:06.617Z,18.70
2022-09-30T00:57:10.489Z,18.70
2022-09-30T00:59:47.170Z,18.70
2022-09-30T01:02:15.417Z,18.70
2022-09-30T01:04:47.287Z,18.80
2022-09-30T01:07:30.184Z,18.90
2022-09-30T01:10:01.993Z,18.90
2022-09-30T01:12:37.719Z,19.00
2022-09-30T01:15:11.031Z,19.10
2022-09-30T01:18:21.838Z,19.10
2022-09-30T01:21:23.490Z,19.10
2022-09-30T01:24:07.207Z,19.20
2022-09-30T01:26:55.692Z,19.20
2022-09-30T01:30:12.430Z,19.20
2022-09-30T01:32:49.808Z,19.20
2022-09-30T01:35:38.446Z,19.10
2022-09-30T01:38:34.534Z,19.20
2022-09-30T01:41:29.420Z,19.20
2022-09-30T01:44:27.109Z,19.20
2022-09-30T01:47:30.083Z,19.30
2022-09-30T01:50:27.582Z,19.30
2022-09-30T01:53:06.230Z,19.30
2022-09-30T01:55:54.716Z,19.30
2022-09-30T01:59:05.648Z,19.20
2022-09-30T02:01:48.646Z,19.10
2022-09-30T02:04:42.471Z,18.90
2022-09-30T02:07:17.869Z,18.90
2022-09-30T02:10:05.200Z,18.90
2022-09-30T02:12:44.216Z,18.90
2022-09-30T02:15:19.484Z,18.90
2022-09-30T02:18:02.738Z,18.90
2022-09-30T02:20:39.963Z,18.90
2022-09-30T02:23:30.211Z,18.90
2022-09-30T02:26:10.092Z,18.90
2022-09-30T02:28:44.796Z,19.00
2022-09-30T02:31:19.354Z,18.90
2022-09-30T02:33:58.056Z,18.90
2022-09-30T02:36:33.072Z,18.90
2022-09-30T02:39:13.045Z,18.70
2022-09-30T02:41:47.822Z,18.50
2022-09-30T02:44:17.591Z,18.50
2022-09-30T02:47:10.908Z,18.50
2022-09-30T02:49:47.247Z,18.50
2022-09-30T02:52:55.709Z,18.60
2022-09-30T02:55:36.140Z,18.60
2022-09-30T02:58:21.562Z,18.50
2022-09-30T03:00:52.478Z,18.40
2022-09-30T03:03:30.660Z,18.30
2022-09-30T03:06:00.248Z,18.30
2022-09-30T03:08:42.061Z,18.10
2022-09-30T03:11:18.393Z,18.10
2022-09-30T03:14:06.711Z,18.10
2022-09-30T03:16:51.573Z,18.10
2022-09-30T03:19:46.869Z,18.20
2022-09-30T03:23:11.062Z,18.30
2022-09-30T03:26:11.561Z,18.40
2022-09-30T03:29:15.308Z,18.50
2022-09-30T03:32:16.363Z,18.60
2022-09-30T03:35:17.706Z,18.60
2022-09-30T03:38:07.600Z,18.60
2022-09-30T03:41:11.691Z,18.60
2022-09-30T03:44:01.489Z,18.60
2022-09-30T03:47:01.555Z,18.70
2022-09-30T03:49:39.499Z,18.70
2022-09-30T03:52:11.518Z,18.80
2022-09-30T03:55:13.978Z,18.80
2022-09-30T03:57:47.404Z,18.80
2022-09-30T04:00:18.313Z,18.80
2022-09-30T04:02:47.950Z,18.90
2022-09-30T04:05:18.626Z,18.90
2022-09-30T04:07:48.739Z,18.90
2022-09-30T04:10:18.687Z,18.90
2022-09-30T04:12:49.030Z,18.80
2022-09-30T04:15:21.492Z,18.80
2022-09-30T04:17:57.367Z,18.80
2022-09-30T04:20:29.376Z,18.70
2022-09-30T04:23:02.131Z,18.80
2022-09-30T04:25:31.568Z,18.70
2022-09-30T04:28:07.543Z,18.70
2022-09-30T04:30:41.871Z,18.70
2022-09-30T04:33:14.210Z,18.80
2022-09-30T04:35:44.440Z,18.80
2022-09-30T04:38:13.558Z,18.80
2022-09-30T04:40:45.147Z,18.80
2022-09-30T04:43:18.009Z,18.80
2022-09-30T04:45:53.236Z,18.80
2022-09-30T04:48:30.395Z,18.80
2022-09-30T04:51:03.691Z,18.90
2022-09-30T04:53:35.304Z,18.90
2022-09-30T04:56:10.791Z,18.90
2022-09-30T04:58:46.834Z,18.80
2022-09-30T05:01:17.848Z,18.70
2022-09-30T05:03:49.398Z,18.70
2022-09-30T05:06:23.286Z,18.60
2022-09-30T05:09:00.775Z,18.60
2022-09-30T05:11:33.773Z,18.60
2022-09-30T05:14:12.541Z,18.60
2022-09-30T05:16:42.269Z,18.60
2022-09-30T05:19:13.717Z,18.60
2022-09-30T05:21:46.196Z,18.60
2022-09-30T05:24:23.411Z,18.60
2022-09-30T05:26:56.915Z,18.70
2022-09-30T05:29:25.472Z,18.70
2022-09-30T05:31:55.489Z,18.70
2022-09-30T05:34:29.957Z,18.70
2022-09-30T05:37:01.619Z,18.80
2022-09-30T05:39:31.572Z,18.70
2022-09-30T05:42:02.400Z,18.80
2022-09-30T05:44:32.659Z,18.80
2022-09-30T05:47:06.130Z,18.80
2022-09-30T05:49:38.278Z,18.70
2022-09-30T05:52:13.352Z,18.70
2022-09-30T05:54:41.667Z,18.60
2022-09-30T05:57:14.717Z,18.60
2022-09-30T05:59:45.589Z,18.60
2022-09-30T06:02:16.105Z,18.60
2022-09-30T06:04:44.287Z,18.60
2022-09-30T06:07:15.767Z,18.70
2022-09-30T06:09:58.594Z,18.60
2022-09-30T06:12:30.475Z,18.50
2022-09-30T06:14:59.623Z,18.50
2022-09-30T06:17:30.847Z,18.60
2022-09-30T06:20:07.191Z,18.70
2022-09-30T06:22:39.107Z,18.70
2022-09-30T06:25:12.860Z,18.70
2022-09-30T06:27:47.786Z,18.70
2022-09-30T06:30:25.296Z,18.80
2022-09-30T06:33:04.805Z,18.90
2022-09-30T06:35:36.519Z,19.00
2022-09-30T06:38:10.597Z,19.00
2022-09-30T06:40:42.913Z,19.00
2022-09-30T06:43:16.594Z,19.00
2022-09-30T06:45:54.618Z,19.10
2022-09-30T06:48:38.947Z,19.20
2022-09-30T06:51:13.735Z,19.20
2022-09-30T06:53:53.804Z,19.20
2022-09-30T06:56:27.526Z,19.20
2022-09-30T06:58:58.357Z,19.30
2022-09-30T07:01:31.561Z,19.40
2022-09-30T07:04:08.219Z,19.40
2022-09-30T07:06:39.278Z,19.50
2022-09-30T07:09:16.480Z,19.50
2022-09-30T07:11:49.563Z,19.60
2022-09-30T07:14:19.163Z,19.60
2022-09-30T07:16:48.738Z,19.70
2022-09-30T07:19:27.184Z,19.70
2022-09-30T07:22:20.494Z,19.70
2022-09-30T07:24:56.536Z,19.90
2022-09-30T07:27:30.893Z,19.90
2022-09-30T07:30:10.722Z,19.90
2022-09-30T07:32:45.697Z,19.90
2022-09-30T07:35:21.182Z,19.90
2022-09-30T07:37:50.460Z,19.90
2022-09-30T07:40:24.980Z,19.90
2022-09-30T07:42:55.512Z,19.80
2022-09-30T07:45:37.333Z,19.90
2022-09-30T07:48:33.599Z,19.90
2022-09-30T07:51:07.539Z,20.00
2022-09-30T07:53:38.765Z,20.00
2022-09-30T07:56:09.123Z,20.00
2022-09-30T07:58:44.014Z,20.10
2022-09-30T08:01:17.098Z,20.10
2022-09-30T08:03:47.632Z,20.20
2022-09-30T08:06:18.605Z,20.20
2022-09-30T08:08:48.788Z,20.30
2022-09-30T08:11:21.664Z,20.30
2022-09-30T08:13:57.051Z,20.30
2022-09-30T08:16:29.198Z,20.30
2022-09-30T08:19:16.262Z,20.20
2022-09-30T08:21:47.017Z,20.20
2022-09-30T08:24:19.650Z,20.20
2022-09-30T08:26:50.752Z,20.30
2022-09-30T08:32:18.278Z,20.40
2022-09-30T08:34:49.798Z,20.40
2022-09-30T08:37:21.051Z,20.50
2022-09-30T08:39:57.351Z,20.60
2022-09-30T08:42:45.304Z,20.60
2022-09-30T08:45:44.426Z,20.80
2022-09-30T08:48:28.911Z,20.90
2022-09-30T08:51:14.870Z,20.80
2022-09-30T08:53:48.028Z,20.80
2022-09-30T08:56:29.762Z,20.90
2022-09-30T08:59:25.278Z,21.00
2022-09-30T09:02:26.448Z,21.10
2022-09-30T09:05:04.800Z,21.30
2022-09-30T09:08:16.349Z,21.30
2022-09-30T09:11:09.094Z,21.20
2022-09-30T09:13:46.027Z,21.20
2022-09-30T09:16:46.206Z,21.30
2022-09-30T09:19:25.364Z,21.30
2022-09-30T09:22:02.601Z,21.30
2022-09-30T09:24:52.464Z,21.30
2022-09-30T09:27:57.052Z,21.30
2022-09-30T09:30:33.332Z,21.30
2022-09-30T09:33:16.300Z,21.30
2022-09-30T09:36:12.233Z,21.30
2022-09-30T09:39:06.913Z,21.30
2022-09-30T09:42:00.963Z,21.10
2022-09-30T09:45:18.743Z,21.10
2022-09-30T09:47:59.436Z,21.10
2022-09-30T09:50:36.964Z,21.10
2022-09-30T09:53:23.731Z,21.10
2022-09-30T09:56:01.270Z,21.20
2022-09-30T09:58:29.765Z,21.20
2022-09-30T10:01:32.079Z,21.30
2022-09-30T10:04:34.433Z,21.30
2022-09-30T10:07:16.991Z,21.40
2022-09-30T10:09:46.025Z,21.40
2022-09-30T10:12:30.923Z,21.50
2022-09-30T10:15:20.774Z,21.50
2022-09-30T10:18:00.919Z,21.50
2022-09-30T10:20:35.794Z,21.70
2022-09-30T10:23:23.217Z,21.90
2022-09-30T10:26:09.239Z,22.00
2022-09-30T10:29:05.437Z,22.10
2022-09-30T10:31:55.032Z,22.20
2022-09-30T10:34:41.195Z,22.30
2022-09-30T10:37:15.381Z,22.30
2022-09-30T10:40:02.224Z,22.40
2022-09-30T10:42:41.030Z,22.60
2022-09-30T10:45:35.340Z,23.00
2022-09-30T10:48:16.851Z,23.20
2022-09-30T10:51:00.992Z,23.30
2022-09-30T10:53:44.609Z,23.50
2022-09-30T10:56:17.920Z,23.40
2022-09-30T10:59:00.339Z,23.50
2022-09-30T11:01:40.542Z,23.50
2022-09-30T11:04:26.346Z,23.60
2022-09-30T11:07:26.869Z,23.60
2022-09-30T11:10:12.966Z,23.70
2022-09-30T11:13:08.426Z,23.80
2022-09-30T11:15:57.391Z,23.80
2022-09-30T11:18:56.849Z,23.90
2022-09-30T11:22:00.318Z,24.00
2022-09-30T11:24:51.068Z,24.00
2022-09-30T11:27:45.994Z,24.10
2022-09-30T11:30:34.504Z,24.30
2022-09-30T11:33:29.658Z,24.50
2022-09-30T11:36:23.486Z,24.70
2022-09-30T11:39:02.856Z,24.90
2022-09-30T11:41:40.265Z,24.90
2022-09-30T11:44:39.525Z,24.90
2022-09-30T11:47:41.766Z,25.00
2022-09-30T11:50:30.427Z,25.10
2022-09-30T11:53:29.176Z,25.20
2022-09-30T11:56:48.655Z,25.30
2022-09-30T11:59:54.113Z,25.40
2022-09-30T12:02:42.733Z,25.60
2022-09-30T12:05:19.792Z,25.90
2022-09-30T12:08:12.936Z,25.80
2022-09-30T12:11:14.988Z,25.80
2022-09-30T12:13:53.938Z,25.60
2022-09-30T12:16:31.426Z,25.50
2022-09-30T12:19:31.137Z,25.50
2022-09-30T12:22:10.106Z,25.60
2022-09-30T12:24:41.955Z,25.60
2022-09-30T12:27:40.190Z,25.50
2022-09-30T12:30:18.050Z,25.50
2022-09-30T12:33:11.099Z,25.50
2022-09-30T12:36:16.754Z,25.80
2022-09-30T12:39:21.982Z,26.20
2022-09-30T12:42:17.600Z,26.60
2022-09-30T12:45:15.975Z,27.10
2022-09-30T12:47:54.968Z,27.20
2022-09-30T12:50:31.307Z,27.50
2022-09-30T12:53:31.420Z,27.90
2022-09-30T12:56:14.047Z,29.20
2022-09-30T12:58:55.203Z,30.70
2022-09-30T13:01:28.108Z,30.90
2022-09-30T13:04:00.780Z,31.20
2022-09-30T13:06:56.569Z,30.70
2022-09-30T13:09:42.549Z,29.80
2022-09-30T13:12:24.996Z,29.10
2022-09-30T13:15:43.025Z,28.60
2022-09-30T13:18:29.744Z,28.30
2022-09-30T13:21:10.843Z,28.20
2022-09-30T13:23:57.606Z,28.30
2022-09-30T13:26:41.233Z,28.00
2022-09-30T13:29:23.776Z,27.60
2022-09-30T13:32:09.300Z,27.10
2022-09-30T13:34:55.022Z,27.20
2022-09-30T13:37:38.281Z,27.20
2022-09-30T13:40:17.844Z,27.20
2022-09-30T13:42:55.384Z,27.00
2022-09-30T13:45:33.374Z,26.80
2022-09-30T13:48:30.511Z,26.70
2022-09-30T13:51:04.112Z,26.80
2022-09-30T13:53:47.339Z,28.20
2022-09-30T13:56:26.435Z,29.40
2022-09-30T13:59:27.993Z,29.90
2022-09-30T14:02:22.124Z,30.00
2022-09-30T14:05:24.773Z,29.70
2022-09-30T14:08:13.145Z,31.10
2022-09-30T14:11:22.900Z,33.30
2022-09-30T14:14:52.174Z,33.90
2022-09-30T14:17:39.416Z,32.80
2022-09-30T14:20:57.220Z,31.20
2022-09-30T14:23:35.080Z,29.60
2022-09-30T14:26:50.420Z,28.50
2022-09-30T14:29:35.038Z,27.70
2022-09-30T14:32:19.851Z,27.00
2022-09-30T14:34:54.577Z,26.40
2022-09-30T14:37:36.238Z,26.10
2022-09-30T14:40:12.399Z,25.80
2022-09-30T14:42:44.385Z,25.70
2022-09-30T14:45:28.068Z,25.60
2022-09-30T14:48:11.232Z,25.50
2022-09-30T14:51:02.212Z,25.40
2022-09-30T14:53:38.132Z,25.30
2022-09-30T14:56:22.939Z,25.30
2022-09-30T14:58:54.152Z,25.20
2022-09-30T15:01:33.971Z,25.10
2022-09-30T15:04:14.301Z,25.00
2022-09-30T15:06:51.606Z,24.90
2022-09-30T15:09:49.108Z,24.90
2022-09-30T15:12:21.646Z,24.80
2022-09-30T15:14:57.894Z,24.70
2022-09-30T15:17:34.580Z,24.70
2022-09-30T15:20:34.846Z,24.60
2022-09-30T15:23:17.720Z,24.60
2022-09-30T15:25:49.342Z,24.60
2022-09-30T15:28:20.991Z,24.60
2022-09-30T15:30:54.231Z,24.60
2022-09-30T15:33:27.717Z,24.60
2022-09-30T15:36:17.936Z,24.50
2022-09-30T15:38:52.208Z,24.40
2022-09-30T15:41:23.179Z,24.30
2022-09-30T15:44:00.154Z,24.30
2022-09-30T15:46:37.959Z,24.30
2022-09-30T15:49:48.751Z,24.20
2022-09-30T15:52:30.709Z,24.10
2022-09-30T15:55:01.148Z,24.00
2022-09-30T15:57:51.260Z,24.00
2022-09-30T16:00:41.632Z,23.90
2022-09-30T16:03:24.944Z,23.80
2022-09-30T16:06:08.434Z,23.70
2022-09-30T16:08:53.972Z,23.70
2022-09-30T16:11:44.619Z,23.70
2022-09-30T16:14:33.080Z,23.60
2022-09-30T16:17:05.900Z,23.50
2022-09-30T16:20:21.063Z,23.50
2022-09-30T16:22:57.479Z,23.50
2022-09-30T16:25:40.037Z,23.40
2022-09-30T16:28:17.831Z,23.40
2022-09-30T16:30:52.314Z,23.30
2022-09-30T16:33:23.264Z,23.30
2022-09-30T16:35:54.468Z,23.20
2022-09-30T16:38:34.754Z,23.20
2022-09-30T16:41:16.202Z,23.20
2022-09-30T16:43:48.607Z,23.10
2022-09-30T16:46:19.794Z,23.10
2022-09-30T16:48:48.364Z,23.10
2022-09-30T16:51:18.474Z,23.10
2022-09-30T16:53:49.066Z,23.10
2022-09-30T16:56:30.984Z,23.10
2022-09-30T16:59:03.482Z,23.00
2022-09-30T17:01:37.533Z,23.10
2022-09-30T17:04:19.280Z,23.10
2022-09-30T17:06:49.286Z,23.10
2022-09-30T17:09:20.287Z,23.10
2022-09-30T17:11:54.317Z,23.10
2022-09-30T17:14:25.613Z,23.10
2022-09-30T17:17:13.415Z,23.10
2022-09-30T17:19:49.587Z,23.00
2022-09-30T17:22:22.933Z,23.00
2022-09-30T17:25:03.766Z,23.00
2022-09-30T17:27:42.002Z,23.00
2022-09-30T17:30:17.444Z,23.00
2022-09-30T17:32:46.854Z,23.00
2022-09-30T17:35:19.807Z,23.00
2022-09-30T17:37:50.988Z,23.00
2022-09-30T17:40:43.958Z,23.00
2022-09-30T17:43:18.121Z,23.00
2022-09-30T17:45:53.233Z,23.00
2022-09-30T17:48:25.170Z,23.00
2022-09-30T17:50:58.696Z,23.00
2022-09-30T17:53:35.643Z,23.00
2022-09-30T17:56:15.561Z,22.80
2022-09-30T17:58:47.771Z,22.80
2022-09-30T18:01:20.457Z,22.80
2022-09-30T18:03:54.342Z,22.80
2022-09-30T18:06:32.697Z,22.80
2022-09-30T18:09:03.798Z,22.80
2022-09-30T18:11:33.897Z,22.70
2022-09-30T18:14:05.138Z,22.70
2022-09-30T18:16:38.549Z,22.70
2022-09-30T18:19:07.735Z,22.70
2022-09-30T18:21:39.592Z,22.80
2022-09-30T18:24:14.983Z,22.70
2022-09-30T18:26:44.663Z,22.60
2022-09-30T18:29:18.585Z,22.60
2022-09-30T18:31:53.104Z,22.60
2022-09-30T18:34:23.746Z,22.50
2022-09-30T18:36:55.534Z,22.40
2022-09-30T18:39:25.853Z,22.40
2022-09-30T18:41:57.896Z,22.40
2022-09-30T18:44:29.879Z,22.30
2022-09-30T18:47:06.966Z,22.30
2022-09-30T18:49:38.924Z,22.30
2022-09-30T18:52:10.658Z,22.20
2022-09-30T18:54:43.749Z,22.20
2022-09-30T18:57:14.342Z,22.20
2022-09-30T18:59:46.009Z,22.20
2022-09-30T19:02:23.363Z,22.10
2022-09-30T19:04:59.184Z,22.10
2022-09-30T19:07:35.461Z,22.10
2022-09-30T19:10:10.866Z,22.10
2022-09-30T19:12:40.565Z,22.00
2022-09-30T19:15:17.008Z,22.10
2022-09-30T19:17:49.876Z,22.00
2022-09-30T19:20:22.252Z,22.00
2022-09-30T19:22:53.439Z,22.00
2022-09-30T19:25:29.096Z,22.00
2022-09-30T19:27:58.649Z,22.00
2022-09-30T19:30:33.718Z,21.90
2022-09-30T19:33:03.764Z,21.80
2022-09-30T19:35:40.602Z,21.80
2022-09-30T19:38:09.722Z,21.80
2022-09-30T19:40:40.852Z,21.70
2022-09-30T19:43:12.954Z,21.70
2022-09-30T19:45:43.531Z,21.80
2022-09-30T19:48:19.150Z,21.80
2022-09-30T19:51:07.022Z,21.80
2022-09-30T19:53:41.778Z,21.80
2022-09-30T19:56:22.573Z,21.80
2022-09-30T19:59:04.474Z,21.80
2022-09-30T20:04:22.129Z,21.60
2022-09-30T20:07:07.438Z,21.50
2022-09-30T20:09:41.539Z,21.50
2022-09-30T20:12:16.369Z,21.50
2022-09-30T20:15:08.500Z,21.50
2022-09-30T20:17:40.186Z,21.40
2022-09-30T20:20:35.097Z,21.40
2022-09-30T20:23:05.815Z,21.30
2022-09-30T20:25:39.311Z,21.30
2022-09-30T20:28:11.188Z,21.20
2022-09-30T20:30:48.740Z,21.10
2022-09-30T20:33:22.004Z,21.10
2022-09-30T20:35:52.705Z,21.20
2022-09-30T20:38:27.072Z,21.20
2022-09-30T20:41:09.861Z,21.20
2022-09-30T20:43:37.269Z,21.20
2022-09-30T20:46:09.200Z,21.30
2022-09-30T20:48:40.272Z,21.30
2022-09-30T20:51:16.583Z,21.30
2022-09-30T20:53:48.814Z,21.20
2022-09-30T20:56:22.319Z,21.20
2022-09-30T20:59:01.319Z,21.20
2022-09-30T21:01:33.000Z,21.20
2022-09-30T21:04:16.945Z,21.20
2022-09-30T21:06:51.956Z,21.10
2022-09-30T21:09:25.494Z,21.10
2022-09-30T21:11:56.054Z,21.00
2022-09-30T21:14:26.670Z,20.90
2022-09-30T21:16:59.678Z,20.90
2022-09-30T21:19:32.754Z,20.90
2022-09-30T21:22:03.405Z,20.80
2022-09-30T21:24:34.969Z,20.80
2022-09-30T21:27:10.193Z,20.70
2022-09-30T21:29:40.691Z,20.70
2022-09-30T21:32:11.236Z,20.70
2022-09-30T21:37:13.570Z,20.70
2022-09-30T21:39:49.098Z,20.70
2022-09-30T21:42:17.482Z,20.70
2022-09-30T21:44:45.618Z,20.70
2022-09-30T21:47:18.671Z,20.70
2022-09-30T21:49:54.967Z,20.70
2022-09-30T21:52:28.549Z,20.80
2022-09-30T21:55:20.391Z,20.70
2022-09-30T21:57:53.486Z,20.70
2022-09-30T22:00:34.658Z,20.70
2022-09-30T22:03:04.701Z,20.70
2022-09-30T22:05:37.655Z,20.70
2022-09-30T22:08:08.143Z,20.80
2022-09-30T22:10:35.999Z,20.70
2022-09-30T22:13:12.884Z,20.70
2022-09-30T22:15:48.870Z,20.70
2022-09-30T22:18:19.917Z,20.60
2022-09-30T22:20:55.861Z,20.50
2022-09-30T22:23:30.379Z,20.50
2022-09-30T22:26:16.304Z,20.40
2022-09-30T22:28:48.078Z,20.40
2022-09-30T22:31:21.430Z,20.40
2022-09-30T22:34:12.909Z,20.40
2022-09-30T22:37:02.004Z,20.40
2022-09-30T22:39:33.917Z,20.40
2022-09-30T22:42:06.410Z,20.40
2022-09-30T22:44:41.740Z,20.40
2022-09-30T22:47:13.471Z,20.30
2022-09-30T22:49:45.791Z,20.30
2022-09-30T22:52:19.127Z,20.30
2022-09-30T22:54:58.009Z,20.30
2022-09-30T22:57:28.815Z,20.30
2022-09-30T22:59:59.417Z,20.40
2022-09-30T23:02:34.101Z,20.40
2022-09-30T23:05:08.037Z,20.50
2022-09-30T23:07:36.471Z,20.50
2022-09-30T23:10:09.224Z,20.50
2022-09-30T23:12:56.281Z,20.60
2022-09-30T23:15:31.828Z,20.60
2022-09-30T23:18:05.433Z,20.60
2022-09-30T23:20:36.995Z,20.70
2022-09-30T23:23:09.272Z,20.70
2022-09-30T23:25:40.617Z,20.70
2022-09-30T23:28:17.981Z,20.70
2022-09-30T23:30:53.964Z,20.50
2022-09-30T23:33:29.506Z,20.50
2022-09-30T23:36:13.877Z,20.50
2022-09-30T23:38:48.393Z,20.50
2022-09-30T23:41:18.447Z,20.50
2022-09-30T23:43:48.865Z,20.50
2022-09-30T23:46:20.849Z,20.60
2022-09-30T23:48:54.098Z,20.60
2022-09-30T23:51:29.858Z,20.60
2022-09-30T23:54:02.320Z,20.50
2022-09-30T23:56:34.024Z,20.60
2022-09-30T23:59:03.580Z,20.60
